createdAt,value
2018-08-11T00:00:22.121Z,99.30
2018-08-11T00:05:25.763Z,99.20
2018-08-11T00:07:54.171Z,99.20
2018-08-11T00:10:23.283Z,99.20
2018-08-11T00:12:52.282Z,99.00
2018-08-11T00:15:21.858Z,99.00
2018-08-11T00:17:50.251Z,99.00
2018-08-11T00:20:23.454Z,99.10
2018-08-11T00:22:51.853Z,99.20
2018-08-11T00:25:20.276Z,99.20
2018-08-11T00:27:48.662Z,99.30
2018-08-11T00:30:18.920Z,99.40
2018-08-11T00:32:47.329Z,99.50
2018-08-11T00:35:16.550Z,99.50
2018-08-11T00:37:45.959Z,99.60
2018-08-11T00:40:18.050Z,99.90
2018-08-11T00:42:48.071Z,99.90
2018-08-11T00:45:18.063Z,99.90
2018-08-11T00:47:46.671Z,99.90
2018-08-11T00:50:20.537Z,99.90
2018-08-11T00:52:48.987Z,99.90
2018-08-11T00:55:17.387Z,99.90
2018-08-11T00:57:45.831Z,99.90
2018-08-11T01:00:17.049Z,99.90
2018-08-11T01:02:45.445Z,99.90
2018-08-11T01:05:16.549Z,99.90
2018-08-11T01:07:45.536Z,99.90
2018-08-11T01:10:14.687Z,99.90
2018-08-11T01:12:44.071Z,99.90
2018-08-11T01:15:16.279Z,99.90
2018-08-11T01:17:45.612Z,99.90
2018-08-11T01:20:14.790Z,99.90
2018-08-11T01:22:44.818Z,99.90
2018-08-11T01:25:14.124Z,99.90
2018-08-11T01:27:42.586Z,99.90
2018-08-11T01:30:13.272Z,99.90
2018-08-11T01:32:41.673Z,99.90
2018-08-11T01:35:10.680Z,99.90
2018-08-11T01:37:40.131Z,99.90
2018-08-11T01:40:10.655Z,99.90
2018-08-11T01:42:39.756Z,99.90
2018-08-11T01:45:09.138Z,99.90
2018-08-11T01:47:37.710Z,99.90
2018-08-11T01:50:07.164Z,99.90
2018-08-11T01:52:35.561Z,99.90
2018-08-11T01:55:04.742Z,99.90
2018-08-11T01:57:33.612Z,99.90
2018-08-11T02:00:02.002Z,99.90
2018-08-11T02:02:30.512Z,99.90
2018-08-11T02:04:58.951Z,99.90
2018-08-11T02:07:27.337Z,99.90
2018-08-11T02:09:55.735Z,99.90
2018-08-11T02:12:24.151Z,99.90
2018-08-11T02:14:52.541Z,99.90
2018-08-11T02:17:20.926Z,99.90
2018-08-11T02:19:49.330Z,99.90
2018-08-11T02:22:17.761Z,99.90
2018-08-11T02:24:46.203Z,99.90
2018-08-11T02:27:14.565Z,99.90
2018-08-11T02:29:42.967Z,99.90
2018-08-11T02:32:11.361Z,99.90
2018-08-11T02:34:39.764Z,99.90
2018-08-11T02:37:08.157Z,99.90
2018-08-11T02:39:36.555Z,99.90
2018-08-11T02:42:04.949Z,99.90
2018-08-11T02:44:33.330Z,99.90
2018-08-11T02:47:01.725Z,99.90
2018-08-11T02:49:30.123Z,99.90
2018-08-11T02:51:58.525Z,99.90
2018-08-11T02:54:26.937Z,99.90
2018-08-11T02:56:55.313Z,99.90
2018-08-11T02:59:25.158Z,99.90
2018-08-11T03:01:55.070Z,99.90
2018-08-11T03:04:24.688Z,99.90
2018-08-11T03:06:53.693Z,99.90
2018-08-11T03:09:22.127Z,99.90
2018-08-11T03:11:50.532Z,99.80
2018-08-11T03:14:19.094Z,99.60
2018-08-11T03:16:47.878Z,99.80
2018-08-11T03:19:16.318Z,99.90
2018-08-11T03:21:45.350Z,99.80
2018-08-11T03:24:13.836Z,99.80
2018-08-11T03:26:43.060Z,99.80
2018-08-11T03:29:11.463Z,99.80
2018-08-11T03:31:40.029Z,99.90
2018-08-11T03:34:08.424Z,99.90
2018-08-11T03:36:36.809Z,99.90
2018-08-11T03:39:09.494Z,99.90
2018-08-11T03:41:37.906Z,99.90
2018-08-11T03:44:06.990Z,99.90
2018-08-11T03:46:35.822Z,99.90
2018-08-11T03:49:04.269Z,99.90
2018-08-11T03:51:32.678Z,99.90
2018-08-11T03:54:01.066Z,99.90
2018-08-11T03:56:30.084Z,99.90
2018-08-11T03:58:59.112Z,99.90
2018-08-11T04:01:27.520Z,99.90
2018-08-11T04:03:55.910Z,99.90
2018-08-11T04:06:24.297Z,99.90
2018-08-11T04:08:52.684Z,99.90
2018-08-11T04:11:21.071Z,99.90
2018-08-11T04:13:49.462Z,99.90
2018-08-11T04:16:17.867Z,99.90
2018-08-11T04:18:46.263Z,99.90
2018-08-11T04:21:14.634Z,99.90
2018-08-11T04:23:43.043Z,99.90
2018-08-11T04:26:11.440Z,99.90
2018-08-11T04:28:40.252Z,99.90
2018-08-11T04:31:08.639Z,99.90
2018-08-11T04:33:37.280Z,99.90
2018-08-11T04:36:05.891Z,99.90
2018-08-11T04:38:34.300Z,99.90
2018-08-11T04:41:02.684Z,99.90
2018-08-11T04:43:31.071Z,99.80
2018-08-11T04:45:59.478Z,99.90
2018-08-11T04:48:27.875Z,99.90
2018-08-11T04:50:56.276Z,99.90
2018-08-11T04:53:24.689Z,99.90
2018-08-11T04:55:53.080Z,99.90
2018-08-11T04:58:21.469Z,99.90
2018-08-11T05:00:49.894Z,99.90
2018-08-11T05:03:18.303Z,99.90
2018-08-11T05:05:47.187Z,99.90
2018-08-11T05:08:15.573Z,99.90
2018-08-11T05:10:43.973Z,99.90
2018-08-11T05:13:12.364Z,99.90
2018-08-11T05:15:40.751Z,99.90
2018-08-11T05:18:09.141Z,99.90
2018-08-11T05:20:37.542Z,99.80
2018-08-11T05:23:05.939Z,99.80
2018-08-11T05:25:34.348Z,99.60
2018-08-11T05:28:02.737Z,99.80
2018-08-11T05:30:31.144Z,99.70
2018-08-11T05:32:59.540Z,99.60
2018-08-11T05:35:27.936Z,99.80
2018-08-11T05:37:56.350Z,99.20
2018-08-11T05:40:24.750Z,99.10
2018-08-11T05:42:53.168Z,98.90
2018-08-11T05:45:21.694Z,98.90
2018-08-11T05:47:50.332Z,98.90
2018-08-11T05:50:18.729Z,98.80
2018-08-11T05:52:47.133Z,98.70
2018-08-11T05:55:15.644Z,98.50
2018-08-11T05:57:44.058Z,98.30
2018-08-11T06:00:12.520Z,98.40
2018-08-11T06:02:40.922Z,98.30
2018-08-11T06:05:09.432Z,98.20
2018-08-11T06:07:37.834Z,97.90
2018-08-11T06:10:08.210Z,97.70
2018-08-11T06:12:36.610Z,97.70
2018-08-11T06:15:05.500Z,97.50
2018-08-11T06:17:33.876Z,97.30
2018-08-11T06:20:02.318Z,97.30
2018-08-11T06:22:30.702Z,97.50
2018-08-11T06:24:59.147Z,97.30
2018-08-11T06:27:27.510Z,96.80
2018-08-11T06:29:55.894Z,96.60
2018-08-11T06:32:24.301Z,96.40
2018-08-11T06:34:52.700Z,96.50
2018-08-11T06:37:21.084Z,96.50
2018-08-11T06:39:49.477Z,96.20
2018-08-11T06:42:17.868Z,95.80
2018-08-11T06:44:46.259Z,95.50
2018-08-11T06:47:14.646Z,95.30
2018-08-11T06:49:43.029Z,95.40
2018-08-11T06:52:11.427Z,96.00
2018-08-11T06:54:39.831Z,95.60
2018-08-11T06:57:08.251Z,95.00
2018-08-11T06:59:36.650Z,94.90
2018-08-11T07:02:05.084Z,94.40
2018-08-11T07:04:33.484Z,94.40
2018-08-11T07:07:02.361Z,93.60
2018-08-11T07:09:31.330Z,93.90
2018-08-11T07:11:59.969Z,94.30
2018-08-11T07:14:28.496Z,93.40
2018-08-11T07:16:56.897Z,92.10
2018-08-11T07:19:25.291Z,92.70
2018-08-11T07:21:53.685Z,92.40
2018-08-11T07:24:22.565Z,91.90
2018-08-11T07:26:53.408Z,92.20
2018-08-11T07:29:22.276Z,91.80
2018-08-11T07:31:51.352Z,90.90
2018-08-11T07:34:20.440Z,90.30
2018-08-11T07:36:48.872Z,90.70
2018-08-11T07:39:23.463Z,89.90
2018-08-11T07:41:51.887Z,86.20
2018-08-11T07:44:20.350Z,83.90
2018-08-11T07:46:48.746Z,84.00
2018-08-11T07:49:17.754Z,85.00
2018-08-11T07:51:46.286Z,84.10
2018-08-11T07:54:15.137Z,84.30
2018-08-11T07:56:43.729Z,85.00
2018-08-11T07:59:12.595Z,84.20
2018-08-11T08:01:41.278Z,82.00
2018-08-11T08:04:10.079Z,79.70
2018-08-11T08:06:38.482Z,79.60
2018-08-11T08:09:10.585Z,80.10
2018-08-11T08:11:39.795Z,79.50
2018-08-11T08:14:08.187Z,78.90
2018-08-11T08:16:36.812Z,78.60
2018-08-11T08:19:05.309Z,79.50
2018-08-11T08:21:33.983Z,76.70
2018-08-11T08:24:02.646Z,75.30
2018-08-11T08:26:31.252Z,74.80
2018-08-11T08:28:59.551Z,76.30
2018-08-11T08:31:27.985Z,76.00
2018-08-11T08:33:56.476Z,74.70
2018-08-11T08:36:25.048Z,71.70
2018-08-11T08:38:53.459Z,71.20
2018-08-11T08:41:21.871Z,70.10
2018-08-11T08:43:50.661Z,67.20
2018-08-11T08:46:19.166Z,69.30
2018-08-11T08:48:47.554Z,68.20
2018-08-11T08:51:17.022Z,67.10
2018-08-11T08:53:46.494Z,67.40
2018-08-11T08:56:15.888Z,68.70
2018-08-11T08:58:44.317Z,66.40
2018-08-11T09:01:12.966Z,67.10
2018-08-11T09:03:41.448Z,64.90
2018-08-11T09:06:09.873Z,63.30
2018-08-11T09:08:38.266Z,62.20
2018-08-11T09:11:06.944Z,62.40
2018-08-11T09:13:35.383Z,62.80
2018-08-11T09:16:04.776Z,61.80
2018-08-11T09:18:33.188Z,61.50
2018-08-11T09:21:01.832Z,63.30
2018-08-11T09:23:30.304Z,61.10
2018-08-11T09:25:58.685Z,60.50
2018-08-11T09:28:27.076Z,58.80
2018-08-11T09:30:55.477Z,57.30
2018-08-11T09:33:24.343Z,57.80
2018-08-11T09:35:53.116Z,58.50
2018-08-11T09:38:21.586Z,58.80
2018-08-11T09:40:49.970Z,58.80
2018-08-11T09:43:18.992Z,56.40
2018-08-11T09:45:47.804Z,55.40
2018-08-11T09:48:16.534Z,56.50
2018-08-11T09:50:44.956Z,55.50
2018-08-11T09:53:13.648Z,55.40
2018-08-11T09:55:42.040Z,55.60
2018-08-11T09:58:10.444Z,55.70
2018-08-11T10:00:44.098Z,55.60
2018-08-11T10:03:12.502Z,55.00
2018-08-11T10:05:40.906Z,52.20
2018-08-11T10:08:09.343Z,53.50
2018-08-11T10:10:37.861Z,53.10
2018-08-11T10:13:07.128Z,54.00
2018-08-11T10:15:35.587Z,54.20
2018-08-11T10:18:04.458Z,53.00
2018-08-11T10:20:32.958Z,52.80
2018-08-11T10:23:01.383Z,52.40
2018-08-11T10:25:29.793Z,52.60
2018-08-11T10:27:58.206Z,52.70
2018-08-11T10:30:26.608Z,51.90
2018-08-11T10:32:55.176Z,51.80
2018-08-11T10:35:23.582Z,50.90
2018-08-11T10:37:52.087Z,52.10
2018-08-11T10:40:20.538Z,50.90
2018-08-11T10:42:49.088Z,51.70
2018-08-11T10:45:18.433Z,51.20
2018-08-11T10:47:47.932Z,51.70
2018-08-11T10:50:16.363Z,51.90
2018-08-11T10:52:44.785Z,51.50
2018-08-11T10:55:13.296Z,52.80
2018-08-11T10:57:41.874Z,52.00
2018-08-11T11:00:10.320Z,51.60
2018-08-11T11:02:40.648Z,49.70
2018-08-11T11:05:10.172Z,49.60
2018-08-11T11:07:38.632Z,51.30
2018-08-11T11:10:08.532Z,50.60
2018-08-11T11:12:36.970Z,51.00
2018-08-11T11:15:07.342Z,50.10
2018-08-11T11:17:35.772Z,50.20
2018-08-11T11:20:04.954Z,50.10
2018-08-11T11:22:33.374Z,49.60
2018-08-11T11:25:01.806Z,50.40
2018-08-11T11:27:31.019Z,50.50
2018-08-11T11:29:59.526Z,51.60
2018-08-11T11:32:28.072Z,49.40
2018-08-11T11:34:56.501Z,48.70
2018-08-11T11:37:24.972Z,49.50
2018-08-11T11:39:53.342Z,48.10
2018-08-11T11:42:21.772Z,48.80
2018-08-11T11:44:50.251Z,48.30
2018-08-11T11:47:18.967Z,47.90
2018-08-11T11:49:47.386Z,48.40
2018-08-11T11:52:15.824Z,47.80
2018-08-11T11:54:44.271Z,48.40
2018-08-11T11:57:12.714Z,47.20
2018-08-11T11:59:41.725Z,46.80
2018-08-11T12:02:10.205Z,46.70
2018-08-11T12:04:39.317Z,47.10
2018-08-11T12:07:08.150Z,47.50
2018-08-11T12:09:36.542Z,49.00
2018-08-11T12:12:04.948Z,49.00
2018-08-11T12:14:33.619Z,49.40
2018-08-11T12:17:02.145Z,48.70
2018-08-11T12:19:30.547Z,48.90
2018-08-11T12:21:58.934Z,48.20
2018-08-11T12:24:27.641Z,46.00
2018-08-11T12:26:56.077Z,45.60
2018-08-11T12:29:24.472Z,45.60
2018-08-11T12:31:53.562Z,46.60
2018-08-11T12:34:21.969Z,46.90
2018-08-11T12:36:54.380Z,47.20
2018-08-11T12:39:24.909Z,47.90
2018-08-11T12:41:53.327Z,47.70
2018-08-11T12:44:21.729Z,47.60
2018-08-11T12:46:50.125Z,47.60
2018-08-11T12:49:18.523Z,47.20
2018-08-11T12:51:46.914Z,46.80
2018-08-11T12:54:15.319Z,47.00
2018-08-11T12:56:43.726Z,48.60
2018-08-11T12:59:12.212Z,48.20
2018-08-11T13:01:40.650Z,47.70
2018-08-11T13:04:09.064Z,48.00
2018-08-11T13:06:37.464Z,48.40
2018-08-11T13:09:09.883Z,48.00
2018-08-11T13:11:38.269Z,48.10
2018-08-11T13:14:07.501Z,47.10
2018-08-11T13:16:36.486Z,45.40
2018-08-11T13:19:04.960Z,44.70
2018-08-11T13:21:33.564Z,45.20
2018-08-11T13:24:01.962Z,45.30
2018-08-11T13:26:30.413Z,45.50
2018-08-11T13:28:58.830Z,44.70
2018-08-11T13:31:27.226Z,44.60
2018-08-11T13:33:55.607Z,43.80
2018-08-11T13:36:24.007Z,43.20
2018-08-11T13:38:52.409Z,43.20
2018-08-11T13:41:20.798Z,44.40
2018-08-11T13:43:50.193Z,44.20
2018-08-11T13:46:19.054Z,44.40
2018-08-11T13:48:47.445Z,43.30
2018-08-11T13:51:15.833Z,44.20
2018-08-11T13:53:44.232Z,43.20
2018-08-11T13:56:12.629Z,42.70
2018-08-11T13:58:41.019Z,42.50
2018-08-11T14:01:09.443Z,42.90
2018-08-11T14:03:37.863Z,42.30
2018-08-11T14:06:06.282Z,42.60
2018-08-11T14:08:34.703Z,43.10
2018-08-11T14:11:03.117Z,43.00
2018-08-11T14:13:32.150Z,43.50
2018-08-11T14:16:00.545Z,43.50
2018-08-11T14:18:28.939Z,42.40
2018-08-11T14:20:57.327Z,42.00
2018-08-11T14:23:25.910Z,42.20
2018-08-11T14:25:54.349Z,42.30
2018-08-11T14:28:22.735Z,41.90
2018-08-11T14:30:51.123Z,41.20
2018-08-11T14:33:19.582Z,41.70
2018-08-11T14:35:48.019Z,41.40
2018-08-11T14:38:16.458Z,42.00
2018-08-11T14:40:44.839Z,42.80
2018-08-11T14:43:13.230Z,42.50
2018-08-11T14:45:41.633Z,42.50
2018-08-11T14:48:10.015Z,41.60
2018-08-11T14:50:38.416Z,41.30
2018-08-11T14:53:06.819Z,40.60
2018-08-11T14:55:35.210Z,40.50
2018-08-11T14:58:03.621Z,40.70
2018-08-11T15:00:32.438Z,41.00
2018-08-11T15:03:00.824Z,41.60
2018-08-11T15:05:29.219Z,40.60
2018-08-11T15:07:57.662Z,40.90
2018-08-11T15:10:26.264Z,42.10
2018-08-11T15:12:55.262Z,41.40
2018-08-11T15:15:23.660Z,40.90
2018-08-11T15:17:52.055Z,40.60
2018-08-11T15:20:20.474Z,39.20
2018-08-11T15:22:48.888Z,39.00
2018-08-11T15:25:17.286Z,39.50
2018-08-11T15:27:45.671Z,39.20
2018-08-11T15:30:14.202Z,38.80
2018-08-11T15:32:42.597Z,37.10
2018-08-11T15:35:10.999Z,38.10
2018-08-11T15:37:39.386Z,38.70
2018-08-11T15:40:08.757Z,38.00
2018-08-11T15:42:37.143Z,37.40
2018-08-11T15:45:07.113Z,37.70
2018-08-11T15:47:35.535Z,38.00
2018-08-11T15:50:04.317Z,36.40
2018-08-11T15:52:32.731Z,36.20
2018-08-11T15:55:01.138Z,36.70
2018-08-11T15:57:30.125Z,37.00
2018-08-11T15:59:58.524Z,36.40
2018-08-11T16:02:26.954Z,36.90
2018-08-11T16:04:55.346Z,37.70
2018-08-11T16:07:23.760Z,37.40
2018-08-11T16:09:52.157Z,38.00
2018-08-11T16:12:20.547Z,38.50
2018-08-11T16:14:48.966Z,38.20
2018-08-11T16:17:17.370Z,37.20
2018-08-11T16:19:45.929Z,36.40
2018-08-11T16:22:14.343Z,36.90
2018-08-11T16:24:42.762Z,37.70
2018-08-11T16:27:11.330Z,37.20
2018-08-11T16:29:39.763Z,37.40
2018-08-11T16:32:08.162Z,38.00
2018-08-11T16:34:36.572Z,38.60
2018-08-11T16:37:05.155Z,38.70
2018-08-11T16:39:33.579Z,38.90
2018-08-11T16:42:02.009Z,38.90
2018-08-11T16:44:30.416Z,39.10
2018-08-11T16:46:58.808Z,39.50
2018-08-11T16:49:27.211Z,40.20
2018-08-11T16:51:55.630Z,41.00
2018-08-11T16:54:24.122Z,40.00
2018-08-11T16:56:52.494Z,40.00
2018-08-11T16:59:20.927Z,39.20
2018-08-11T17:01:49.304Z,37.90
2018-08-11T17:04:17.994Z,37.60
2018-08-11T17:06:46.382Z,38.00
2018-08-11T17:09:14.789Z,39.20
2018-08-11T17:11:43.190Z,40.10
2018-08-11T17:14:11.582Z,39.90
2018-08-11T17:16:39.988Z,40.00
2018-08-11T17:19:08.380Z,39.30
2018-08-11T17:21:36.780Z,39.40
2018-08-11T17:24:05.167Z,39.20
2018-08-11T17:26:33.550Z,39.80
2018-08-11T17:29:01.961Z,40.30
2018-08-11T17:31:30.363Z,40.70
2018-08-11T17:33:58.768Z,41.20
2018-08-11T17:36:27.171Z,41.80
2018-08-11T17:38:55.609Z,42.70
2018-08-11T17:41:24.234Z,43.80
2018-08-11T17:43:52.628Z,44.70
2018-08-11T17:46:21.055Z,44.90
2018-08-11T17:48:49.571Z,44.60
2018-08-11T17:51:17.964Z,44.50
2018-08-11T17:53:46.363Z,44.90
2018-08-11T17:56:14.766Z,45.00
2018-08-11T17:58:43.177Z,45.50
2018-08-11T18:01:11.573Z,45.70
2018-08-11T18:03:39.986Z,46.00
2018-08-11T18:06:08.421Z,46.40
2018-08-11T18:08:36.819Z,46.70
2018-08-11T18:11:05.229Z,46.80
2018-08-11T18:13:33.619Z,47.20
2018-08-11T18:16:02.186Z,47.40
2018-08-11T18:18:30.789Z,47.60
2018-08-11T18:20:59.853Z,47.90
2018-08-11T18:23:28.246Z,47.90
2018-08-11T18:25:56.639Z,48.10
2018-08-11T18:28:25.036Z,48.30
2018-08-11T18:30:53.439Z,48.40
2018-08-11T18:33:21.858Z,48.60
2018-08-11T18:35:50.258Z,48.70
2018-08-11T18:38:19.014Z,48.90
2018-08-11T18:40:47.424Z,49.00
2018-08-11T18:43:15.832Z,49.10
2018-08-11T18:45:44.223Z,49.20
2018-08-11T18:48:12.614Z,49.50
2018-08-11T18:50:41.014Z,49.70
2018-08-11T18:53:09.427Z,50.00
2018-08-11T18:55:37.826Z,50.10
2018-08-11T18:58:06.314Z,50.40
2018-08-11T19:00:34.721Z,50.60
2018-08-11T19:03:03.136Z,50.90
2018-08-11T19:05:31.536Z,51.20
2018-08-11T19:08:00.215Z,51.50
2018-08-11T19:10:29.420Z,51.80
2018-08-11T19:12:57.841Z,52.10
2018-08-11T19:15:27.063Z,52.20
2018-08-11T19:17:55.654Z,52.60
2018-08-11T19:20:24.074Z,53.10
2018-08-11T19:22:52.483Z,53.70
2018-08-11T19:25:20.930Z,54.40
2018-08-11T19:27:49.298Z,55.60
2018-08-11T19:30:17.698Z,56.60
2018-08-11T19:32:46.155Z,57.90
2018-08-11T19:35:14.506Z,58.90
2018-08-11T19:37:42.891Z,59.90
2018-08-11T19:40:11.640Z,61.40
2018-08-11T19:42:40.068Z,62.80
2018-08-11T19:45:11.139Z,64.10
2018-08-11T19:47:40.146Z,64.80
2018-08-11T19:50:11.056Z,64.70
2018-08-11T19:52:40.692Z,65.90
2018-08-11T19:55:10.204Z,67.60
2018-08-11T19:57:38.766Z,68.30
2018-08-11T20:00:11.444Z,68.70
2018-08-11T20:02:40.983Z,68.80
2018-08-11T20:05:10.505Z,68.60
2018-08-11T20:07:38.935Z,69.30
2018-08-11T20:10:08.481Z,70.50
2018-08-11T20:12:38.019Z,71.10
2018-08-11T20:15:08.719Z,71.40
2018-08-11T20:17:37.128Z,71.70
2018-08-11T20:20:08.436Z,72.00
2018-08-11T20:22:36.839Z,72.40
2018-08-11T20:25:05.571Z,73.80
2018-08-11T20:27:33.949Z,73.40
2018-08-11T20:30:02.350Z,73.80
2018-08-11T20:32:30.966Z,74.80
2018-08-11T20:34:59.362Z,75.40
2018-08-11T20:37:27.794Z,75.80
2018-08-11T20:39:56.258Z,76.20
2018-08-11T20:42:24.666Z,76.50
2018-08-11T20:44:53.060Z,76.80
2018-08-11T20:47:21.491Z,77.50
2018-08-11T20:49:49.871Z,78.50
2018-08-11T20:52:18.280Z,79.40
2018-08-11T20:54:46.694Z,80.10
2018-08-11T20:57:15.139Z,80.20
2018-08-11T20:59:43.532Z,80.40
2018-08-11T21:02:11.943Z,80.40
2018-08-11T21:04:40.569Z,80.60
2018-08-11T21:07:08.976Z,81.00
2018-08-11T21:09:37.359Z,81.20
2018-08-11T21:12:05.765Z,81.60
2018-08-11T21:14:34.165Z,82.00
2018-08-11T21:17:02.563Z,82.20
2018-08-11T21:19:30.990Z,82.90
2018-08-11T21:21:59.388Z,83.00
2018-08-11T21:24:27.782Z,82.70
2018-08-11T21:26:56.916Z,82.80
2018-08-11T21:29:26.310Z,83.00
2018-08-11T21:31:54.708Z,83.10
2018-08-11T21:34:23.105Z,84.10
2018-08-11T21:36:51.533Z,83.80
2018-08-11T21:39:19.962Z,84.00
2018-08-11T21:41:48.469Z,84.30
2018-08-11T21:44:16.879Z,84.40
2018-08-11T21:46:45.270Z,84.70
2018-08-11T21:49:13.675Z,84.60
2018-08-11T21:51:42.094Z,85.60
2018-08-11T21:54:10.538Z,85.80
2018-08-11T21:56:38.930Z,86.40
2018-08-11T21:59:08.103Z,86.60
2018-08-11T22:01:36.951Z,86.90
2018-08-11T22:04:05.951Z,87.30
2018-08-11T22:06:34.369Z,87.60
2018-08-11T22:09:02.843Z,87.70
2018-08-11T22:11:31.416Z,88.40
2018-08-11T22:13:59.813Z,87.60
2018-08-11T22:16:28.213Z,87.40
2018-08-11T22:18:56.603Z,87.50
2018-08-11T22:21:25.032Z,87.60
2018-08-11T22:23:53.409Z,87.70
2018-08-11T22:26:21.815Z,87.80
2018-08-11T22:28:50.635Z,87.70
2018-08-11T22:31:19.029Z,88.10
2018-08-11T22:33:47.478Z,88.10
2018-08-11T22:36:15.866Z,88.40
2018-08-11T22:38:45.046Z,88.40
2018-08-11T22:41:13.693Z,88.20
2018-08-11T22:43:42.816Z,87.30
2018-08-11T22:46:11.566Z,86.20
2018-08-11T22:48:40.088Z,85.40
2018-08-11T22:51:08.554Z,85.00
2018-08-11T22:53:36.996Z,84.60
2018-08-11T22:56:05.447Z,84.50
2018-08-11T22:58:34.556Z,85.10
2018-08-11T23:01:03.082Z,83.90
2018-08-11T23:03:31.494Z,83.70
2018-08-11T23:05:59.934Z,83.80
2018-08-11T23:08:28.357Z,83.80
2018-08-11T23:10:56.828Z,83.80
2018-08-11T23:13:25.255Z,83.50
2018-08-11T23:15:53.684Z,83.60
2018-08-11T23:18:22.114Z,83.90
2018-08-11T23:20:50.914Z,84.30
2018-08-11T23:23:19.311Z,84.20
2018-08-11T23:25:47.705Z,83.80
2018-08-11T23:28:16.119Z,83.90
2018-08-11T23:30:45.407Z,83.70
2018-08-11T23:33:13.797Z,83.80
2018-08-11T23:35:42.231Z,84.00
2018-08-11T23:38:11.238Z,84.20
2018-08-11T23:40:39.584Z,84.10
2018-08-11T23:43:08.503Z,83.80
2018-08-11T23:45:37.105Z,83.60
2018-08-11T23:48:06.117Z,83.30
2018-08-11T23:50:34.533Z,83.30
2018-08-11T23:53:02.963Z,83.10
2018-08-11T23:55:39.981Z,82.70
2018-08-11T23:58:08.405Z,82.30
